createdAt,value
2023-02-13T00:02:18.798Z,97076.25
2023-02-13T00:04:47.528Z,97074.10
2023-02-13T00:07:16.279Z,97074.36
2023-02-13T00:09:44.931Z,97081.16
2023-02-13T00:12:13.558Z,97080.95
2023-02-13T00:14:42.420Z,97079.39
2023-02-13T00:17:11.117Z,97082.47
2023-02-13T00:19:42.518Z,97079.16
2023-02-13T00:22:11.139Z,97063.94
2023-02-13T00:24:39.724Z,97085.42
2023-02-13T00:27:08.413Z,97089.96
2023-02-13T00:29:37.056Z,97071.20
2023-02-13T00:32:05.958Z,97087.91
2023-02-13T00:34:34.899Z,97088.30
2023-02-13T00:37:03.948Z,97085.05
2023-02-13T00:39:32.711Z,97093.69
2023-02-13T00:42:01.323Z,97088.98
2023-02-13T00:44:29.933Z,97086.61
2023-02-13T00:46:58.586Z,97087.84
2023-02-13T00:49:27.376Z,97091.88
2023-02-13T00:51:56.018Z,97092.46
2023-02-13T00:54:24.641Z,97093.27
2023-02-13T00:56:53.296Z,97100.13
2023-02-13T00:59:21.818Z,97094.88
2023-02-13T01:01:50.567Z,97097.58
2023-02-13T01:04:19.279Z,97103.85
2023-02-13T01:06:50.376Z,97102.31
2023-02-13T01:09:18.993Z,97099.25
2023-02-13T01:11:47.635Z,97103.23
2023-02-13T01:14:16.356Z,97098.92
2023-02-13T01:16:45.069Z,97097.87
2023-02-13T01:19:13.729Z,97099.43
2023-02-13T01:21:44.106Z,97073.52
2023-02-13T01:24:12.809Z,97101.47
2023-02-13T01:26:41.408Z,97100.62
2023-02-13T01:29:11.517Z,97112.22
2023-02-13T01:31:40.324Z,97103.37
2023-02-13T01:34:09.003Z,97111.70
2023-02-13T01:36:37.615Z,97109.52
2023-02-13T01:39:06.350Z,97108.43
2023-02-13T01:41:34.916Z,97113.73
2023-02-13T01:44:03.709Z,97095.98
2023-02-13T01:46:35.338Z,97117.27
2023-02-13T01:49:15.961Z,97116.06
2023-02-13T01:51:46.237Z,97116.15
2023-02-13T01:54:18.183Z,97118.19
2023-02-13T01:56:49.869Z,97118.95
2023-02-13T01:59:24.130Z,97124.22
2023-02-13T02:01:53.155Z,97125.26
2023-02-13T02:04:25.279Z,97120.80
2023-02-13T02:07:02.689Z,97119.23
2023-02-13T02:09:34.280Z,97120.53
2023-02-13T02:12:08.814Z,97117.15
2023-02-13T02:14:37.620Z,97112.16
2023-02-13T02:17:06.315Z,97109.33
2023-02-13T02:19:52.738Z,97115.57
2023-02-13T02:22:40.940Z,97115.77
2023-02-13T02:25:35.158Z,97113.15
2023-02-13T02:28:26.313Z,97111.81
2023-02-13T02:31:14.708Z,97119.02
2023-02-13T02:33:58.169Z,97109.78
2023-02-13T02:36:47.809Z,97107.59
2023-02-13T02:39:28.644Z,97109.69
2023-02-13T02:42:21.560Z,97120.91
2023-02-13T02:45:26.314Z,97125.27
2023-02-13T02:48:21.700Z,97125.08
2023-02-13T02:51:01.868Z,97128.72
2023-02-13T02:53:39.306Z,97136.34
2023-02-13T02:56:13.429Z,97140.77
2023-02-13T02:59:14.894Z,97140.54
2023-02-13T03:02:03.191Z,97140.50
2023-02-13T03:05:01.541Z,97145.69
2023-02-13T03:07:30.144Z,97142.27
2023-02-13T03:10:19.765Z,97140.44
2023-02-13T03:13:12.259Z,97136.19
2023-02-13T03:16:01.019Z,97142.44
2023-02-13T03:18:50.752Z,97133.95
2023-02-13T03:21:46.582Z,97137.94
2023-02-13T03:24:20.780Z,97148.84
2023-02-13T03:26:53.792Z,97145.17
2023-02-13T03:29:59.866Z,97146.94
2023-02-13T03:32:31.413Z,97148.81
2023-02-13T03:35:29.845Z,97151.97
2023-02-13T03:38:01.435Z,97150.77
2023-02-13T03:41:05.811Z,97148.39
2023-02-13T03:43:37.371Z,97146.80
2023-02-13T03:46:07.016Z,97146.03
2023-02-13T03:48:56.278Z,97149.11
2023-02-13T03:51:42.874Z,97140.65
2023-02-13T03:54:24.946Z,97140.28
2023-02-13T03:57:13.137Z,97146.64
2023-02-13T03:59:42.240Z,97143.38
2023-02-13T04:02:16.628Z,97140.75
2023-02-13T04:04:57.451Z,97146.14
2023-02-13T04:07:30.828Z,97139.62
2023-02-13T04:10:05.320Z,97148.18
2023-02-13T04:12:53.105Z,97144.78
2023-02-13T04:15:24.668Z,97146.98
2023-02-13T04:18:05.126Z,97144.69
2023-02-13T04:20:34.672Z,97135.45
2023-02-13T04:23:11.306Z,97141.74
2023-02-13T04:25:42.827Z,97150.92
2023-02-13T04:28:12.413Z,97154.58
2023-02-13T04:30:41.197Z,97156.77
2023-02-13T04:33:09.846Z,97154.42
2023-02-13T04:35:38.385Z,97157.17
2023-02-13T04:38:08.991Z,97157.11
2023-02-13T04:40:37.571Z,97144.90
2023-02-13T04:43:07.380Z,97150.11
2023-02-13T04:45:35.963Z,97140.09
2023-02-13T04:48:04.668Z,97153.18
2023-02-13T04:50:33.238Z,97151.33
2023-02-13T04:53:01.945Z,97149.80
2023-02-13T04:55:30.539Z,97155.09
2023-02-13T04:57:59.528Z,97163.22
2023-02-13T05:00:29.382Z,97167.22
2023-02-13T05:03:06.330Z,97162.14
2023-02-13T05:05:35.223Z,97168.55
2023-02-13T05:08:03.916Z,97167.23
2023-02-13T05:10:32.510Z,97173.16
2023-02-13T05:13:01.503Z,97175.55
2023-02-13T05:15:30.330Z,97173.53
2023-02-13T05:17:59.224Z,97174.30
2023-02-13T05:20:28.754Z,97175.59
2023-02-13T05:23:15.527Z,97182.39
2023-02-13T05:25:44.073Z,97180.76
2023-02-13T05:28:31.950Z,97190.09
2023-02-13T05:31:01.121Z,97183.28
2023-02-13T05:33:29.993Z,97181.20
2023-02-13T05:35:58.514Z,97177.55
2023-02-13T05:38:27.065Z,97185.62
2023-02-13T05:40:56.302Z,97187.80
2023-02-13T05:43:25.048Z,97194.34
2023-02-13T05:45:54.781Z,97196.17
2023-02-13T05:48:26.539Z,97198.66
2023-02-13T05:50:55.764Z,97185.40
2023-02-13T05:53:24.662Z,97197.84
2023-02-13T05:55:53.367Z,97196.78
2023-02-13T05:58:25.793Z,97200.03
2023-02-13T06:00:58.600Z,97201.07
2023-02-13T06:03:28.738Z,97203.72
2023-02-13T06:05:58.376Z,97204.77
2023-02-13T06:08:27.446Z,97202.94
2023-02-13T06:10:56.128Z,97209.82
2023-02-13T06:13:25.096Z,97215.20
2023-02-13T06:15:54.093Z,97218.28
2023-02-13T06:18:22.759Z,97217.66
2023-02-13T06:20:51.515Z,97221.75
2023-02-13T06:23:20.134Z,97219.20
2023-02-13T06:25:48.747Z,97229.48
2023-02-13T06:28:17.461Z,97225.88
2023-02-13T06:30:46.245Z,97223.35
2023-02-13T06:33:14.843Z,97226.36
2023-02-13T06:35:43.396Z,97227.34
2023-02-13T06:38:12.074Z,97223.95
2023-02-13T06:40:40.684Z,97225.87
2023-02-13T06:43:09.204Z,97228.86
2023-02-13T06:45:38.821Z,97232.80
2023-02-13T06:48:07.488Z,97231.22
2023-02-13T06:50:36.463Z,97237.57
2023-02-13T06:53:05.126Z,97233.41
2023-02-13T06:55:33.995Z,97220.39
2023-02-13T06:58:03.006Z,97235.02
2023-02-13T07:00:42.299Z,97225.08
2023-02-13T07:03:12.371Z,97227.67
2023-02-13T07:05:46.366Z,97228.68
2023-02-13T07:08:15.357Z,97225.53
2023-02-13T07:10:44.133Z,97225.11
2023-02-13T07:13:15.532Z,97220.13
2023-02-13T07:15:48.802Z,97220.16
2023-02-13T07:18:17.933Z,97213.66
2023-02-13T07:20:46.820Z,97229.97
2023-02-13T07:23:15.850Z,97229.97
2023-02-13T07:25:44.885Z,97236.34
2023-02-13T07:28:15.306Z,97238.98
2023-02-13T07:30:51.681Z,97234.83
2023-02-13T07:33:26.003Z,97237.14
2023-02-13T07:35:56.491Z,97234.50
2023-02-13T07:38:28.186Z,97231.75
2023-02-13T07:41:06.782Z,97240.23
2023-02-13T07:43:36.352Z,97236.91
2023-02-13T07:46:08.938Z,97236.38
2023-02-13T07:48:42.182Z,97232.76
2023-02-13T07:51:12.624Z,97237.50
2023-02-13T07:54:06.186Z,97239.39
2023-02-13T07:56:40.323Z,97238.34
2023-02-13T07:59:11.065Z,97236.23
2023-02-13T08:01:41.669Z,97240.20
2023-02-13T08:07:29.789Z,97239.39
2023-02-13T08:10:45.014Z,97231.45
2023-02-13T08:13:46.242Z,97235.18
2023-02-13T08:16:16.019Z,97234.12
2023-02-13T08:21:52.228Z,97225.70
2023-02-13T08:27:04.744Z,97228.20
2023-02-13T08:32:53.183Z,97234.73
2023-02-13T08:35:12.978Z,97236.75
2023-02-13T08:37:41.967Z,97231.14
2023-02-13T08:40:10.868Z,97230.18
2023-02-13T08:42:43.038Z,97234.36
2023-02-13T08:45:13.825Z,97232.20
2023-02-13T08:47:53.818Z,97239.12
2023-02-13T08:50:27.123Z,97232.50
2023-02-13T08:53:05.235Z,97233.79
2023-02-13T08:58:27.107Z,97225.19
2023-02-13T09:00:56.206Z,97195.56
2023-02-13T09:03:34.589Z,97233.11
2023-02-13T09:06:06.857Z,97224.03
2023-02-13T09:08:37.807Z,97234.20
2023-02-13T09:11:11.322Z,97232.56
2023-02-13T09:13:43.101Z,97231.94
2023-02-13T09:16:13.903Z,97227.48
2023-02-13T09:18:46.031Z,97229.91
2023-02-13T09:21:22.975Z,97230.72
2023-02-13T09:23:57.862Z,97217.30
2023-02-13T09:26:30.922Z,97162.02
2023-02-13T09:28:59.907Z,97225.92
2023-02-13T09:31:30.391Z,97222.16
2023-02-13T09:34:02.767Z,97220.69
2023-02-13T09:36:31.680Z,97209.59
2023-02-13T09:39:03.641Z,97209.31
2023-02-13T09:41:49.213Z,97209.76
2023-02-13T09:44:35.873Z,97209.69
2023-02-13T09:47:22.810Z,97205.34
2023-02-13T09:49:54.699Z,97206.44
2023-02-13T09:59:50.499Z,97194.08
2023-02-13T10:02:25.960Z,97190.78
2023-02-13T10:05:15.297Z,97183.59
2023-02-13T10:14:32.336Z,97173.92
2023-02-13T10:17:11.685Z,97156.31
2023-02-13T10:19:50.001Z,97156.31
2023-02-13T10:22:25.045Z,97157.19
2023-02-13T10:25:17.632Z,97153.11
2023-02-13T10:27:49.523Z,97149.00
2023-02-13T10:30:45.099Z,97140.28
2023-02-13T10:33:20.026Z,97140.02
2023-02-13T10:36:11.530Z,97133.03
2023-02-13T10:38:43.540Z,97129.56
2023-02-13T10:41:42.958Z,97133.20
2023-02-13T10:44:34.172Z,97129.95
2023-02-13T10:47:08.876Z,97123.53
2023-02-13T10:49:58.870Z,97109.74
2023-02-13T10:52:39.240Z,97110.06
2023-02-13T10:55:26.074Z,97105.56
2023-02-13T10:58:19.080Z,97105.56
2023-02-13T11:03:50.965Z,97110.80
2023-02-13T11:06:24.373Z,97090.89
2023-02-13T11:08:52.981Z,97090.89
2023-02-13T11:11:38.309Z,97090.89
2023-02-13T11:14:46.682Z,97083.11
2023-02-13T11:17:19.614Z,97075.48
2023-02-13T11:19:52.668Z,97075.30
2023-02-13T11:22:55.446Z,97069.32
2023-02-13T11:25:25.475Z,97068.56
2023-02-13T11:27:57.138Z,97055.98
2023-02-13T11:30:34.186Z,97047.37
2023-02-13T11:36:19.716Z,97039.75
2023-02-13T11:38:53.773Z,97031.42
2023-02-13T11:41:38.860Z,97035.23
2023-02-13T11:44:20.249Z,97028.01
2023-02-13T11:46:54.389Z,97022.48
2023-02-13T11:49:48.161Z,97015.62
2023-02-13T11:52:29.334Z,97007.86
2023-02-13T11:55:03.358Z,97001.61
2023-02-13T11:57:34.747Z,96991.80
2023-02-13T12:00:24.827Z,96989.80
2023-02-13T12:02:53.722Z,96988.92
2023-02-13T12:05:28.580Z,96977.73
2023-02-13T12:08:00.334Z,96977.92
2023-02-13T12:10:35.092Z,96971.75
2023-02-13T12:13:15.573Z,96976.23
2023-02-13T12:15:48.865Z,96968.30
2023-02-13T12:18:38.769Z,96972.77
2023-02-13T12:21:28.540Z,96969.56
2023-02-13T12:24:30.424Z,96971.09
2023-02-13T12:27:07.734Z,96965.14
2023-02-13T12:29:58.888Z,96965.32
2023-02-13T12:32:56.396Z,96968.05
2023-02-13T12:35:44.255Z,96955.52
2023-02-13T12:38:15.925Z,96957.84
2023-02-13T12:41:03.993Z,96963.69
2023-02-13T12:43:56.385Z,96954.80
2023-02-13T12:46:39.863Z,96945.36
2023-02-13T12:49:28.672Z,96938.93
2023-02-13T12:52:18.548Z,96940.79
2023-02-13T12:54:54.705Z,96939.62
2023-02-13T12:57:42.993Z,96935.89
2023-02-13T13:00:20.272Z,96929.87
2023-02-13T13:02:57.234Z,96929.03
2023-02-13T13:05:35.391Z,96928.34
2023-02-13T13:08:16.672Z,96922.16
2023-02-13T13:11:13.111Z,96924.28
2023-02-13T13:14:01.062Z,96925.27
2023-02-13T13:16:53.804Z,96917.97
2023-02-13T13:19:40.228Z,96916.56
2023-02-13T13:22:15.930Z,96909.25
2023-02-13T13:25:02.577Z,96905.80
2023-02-13T13:27:34.154Z,96902.47
2023-02-13T13:30:09.273Z,96900.92
2023-02-13T13:32:44.572Z,96905.64
2023-02-13T13:35:16.252Z,96896.70
2023-02-13T13:38:09.088Z,96897.34
2023-02-13T13:40:52.877Z,96897.06
2023-02-13T13:43:45.347Z,96895.05
2023-02-13T13:46:23.022Z,96889.38
2023-02-13T13:49:03.479Z,96892.42
2023-02-13T13:51:40.948Z,96884.56
2023-02-13T13:54:12.539Z,96887.02
2023-02-13T13:56:59.987Z,96894.53
2023-02-13T13:59:41.510Z,96891.16
2023-02-13T14:02:21.938Z,96886.97
2023-02-13T14:05:03.111Z,96887.54
2023-02-13T14:07:41.558Z,96890.23
2023-02-13T14:10:28.265Z,96884.31
2023-02-13T14:13:04.116Z,96886.95
2023-02-13T14:15:42.554Z,96884.30
2023-02-13T14:18:17.283Z,96883.05
2023-02-13T14:20:51.696Z,96874.75
2023-02-13T14:23:37.946Z,96874.72
2023-02-13T14:26:18.166Z,96872.02
2023-02-13T14:28:52.410Z,96864.65
2023-02-13T14:31:39.503Z,96860.73
2023-02-13T14:34:18.323Z,96857.08
2023-02-13T14:36:52.824Z,96855.69
2023-02-13T14:39:37.252Z,96853.09
2023-02-13T14:42:08.863Z,96860.41
2023-02-13T14:44:49.398Z,96861.34
2023-02-13T14:47:45.052Z,96857.07
2023-02-13T14:50:23.023Z,96856.32
2023-02-13T14:52:53.164Z,96856.92
2023-02-13T14:55:36.894Z,96842.16
2023-02-13T14:58:23.523Z,96856.28
2023-02-13T15:00:58.402Z,96849.52
2023-02-13T15:03:39.001Z,96849.52
2023-02-13T15:06:10.682Z,96852.00
2023-02-13T15:08:49.026Z,96848.57
2023-02-13T15:11:39.065Z,96848.81
2023-02-13T15:14:27.188Z,96843.91
2023-02-13T15:17:16.951Z,96844.50
2023-02-13T15:19:48.757Z,96845.91
2023-02-13T15:22:20.441Z,96846.82
2023-02-13T15:24:57.952Z,96853.86
2023-02-13T15:27:32.908Z,96851.53
2023-02-13T15:30:04.714Z,96855.09
2023-02-13T15:32:37.925Z,96857.27
2023-02-13T15:35:18.375Z,96854.68
2023-02-13T15:37:46.935Z,96855.09
2023-02-13T15:40:17.588Z,96857.81
2023-02-13T15:42:47.627Z,96855.36
2023-02-13T15:45:19.235Z,96861.84
2023-02-13T15:50:49.411Z,96872.45
2023-02-13T15:53:21.874Z,96865.55
2023-02-13T15:59:31.673Z,96872.80
2023-02-13T16:02:06.722Z,96872.80
2023-02-13T16:04:42.712Z,96870.36
2023-02-13T16:07:14.324Z,96861.07
2023-02-13T16:09:45.323Z,96862.69
2023-02-13T16:12:23.036Z,96866.40
2023-02-13T16:14:57.147Z,96861.84
2023-02-13T16:17:30.514Z,96861.84
2023-02-13T16:20:07.703Z,96869.77
2023-02-13T16:22:48.369Z,96872.69
2023-02-13T16:25:35.340Z,96867.86
2023-02-13T16:28:07.121Z,96883.92
2023-02-13T16:30:45.479Z,96883.28
2023-02-13T16:33:19.826Z,96887.23
2023-02-13T16:35:57.849Z,96882.49
2023-02-13T16:38:35.301Z,96881.80
2023-02-13T16:41:07.002Z,96883.28
2023-02-13T16:43:59.052Z,96885.84
2023-02-13T16:46:42.677Z,96886.91
2023-02-13T16:49:18.364Z,96884.81
2023-02-13T16:51:53.245Z,96881.95
2023-02-13T16:54:24.904Z,96886.23
2023-02-13T16:56:56.796Z,96880.50
2023-02-13T16:59:44.793Z,96880.79
2023-02-13T17:02:37.434Z,96877.94
2023-02-13T17:05:18.119Z,96875.87
2023-02-13T17:07:49.176Z,96882.63
2023-02-13T17:10:31.329Z,96882.94
2023-02-13T17:13:03.065Z,96879.46
2023-02-13T17:15:38.684Z,96881.88
2023-02-13T17:18:07.965Z,96885.48
2023-02-13T17:20:45.924Z,96888.21
2023-02-13T17:23:17.974Z,96891.66
2023-02-13T17:25:50.068Z,96886.17
2023-02-13T17:28:22.087Z,96889.64
2023-02-13T17:30:53.305Z,96888.33
2023-02-13T17:33:27.790Z,96891.97
2023-02-13T17:36:22.614Z,96889.67
2023-02-13T17:41:40.452Z,96885.77
2023-02-13T17:44:22.501Z,96879.23
2023-02-13T17:47:14.409Z,96878.17
2023-02-13T17:50:08.857Z,96879.02
2023-02-13T17:52:32.546Z,96803.79
2023-02-13T17:55:03.045Z,96883.58
2023-02-13T17:57:31.976Z,96872.78
2023-02-13T18:00:02.952Z,96875.66
2023-02-13T18:08:54.379Z,96857.52
2023-02-13T18:11:23.348Z,96866.78
2023-02-13T18:13:52.268Z,96865.22
2023-02-13T18:16:22.705Z,96861.31
2023-02-13T18:18:51.682Z,96859.99
2023-02-13T18:21:30.386Z,96864.23
2023-02-13T18:24:02.184Z,96861.59
2023-02-13T18:26:32.608Z,96861.86
2023-02-13T18:29:02.533Z,96864.52
2023-02-13T18:31:40.784Z,96869.01
2023-02-13T18:34:09.490Z,96801.05
2023-02-13T18:36:40.067Z,96869.02
2023-02-13T18:39:08.871Z,96863.27
2023-02-13T18:41:37.465Z,96860.59
2023-02-13T18:44:06.977Z,96862.70
2023-02-13T18:46:37.115Z,96862.97
2023-02-13T18:49:06.119Z,96865.36
2023-02-13T18:51:37.898Z,96860.89
2023-02-13T18:54:06.649Z,96822.89
2023-02-13T18:56:36.880Z,96859.56
2023-02-13T18:59:08.463Z,96863.02
2023-02-13T19:01:37.484Z,96864.59
2023-02-13T19:04:07.138Z,96807.48
2023-02-13T19:06:35.965Z,96869.95
2023-02-13T19:09:05.847Z,96866.52
2023-02-13T19:11:37.903Z,96873.89
2023-02-13T19:14:07.684Z,96872.52
2023-02-13T19:16:43.334Z,96877.80
2023-02-13T19:19:12.598Z,96875.20
2023-02-13T19:21:49.827Z,96873.89
2023-02-13T19:24:18.752Z,96871.77
2023-02-13T19:26:49.094Z,96870.67
2023-02-13T19:29:17.823Z,96874.36
2023-02-13T19:31:46.702Z,96867.27
2023-02-13T19:34:15.513Z,96869.10
2023-02-13T19:36:44.261Z,96871.77
2023-02-13T19:39:15.138Z,96871.48
2023-02-13T19:41:45.276Z,96873.34
2023-02-13T19:44:15.709Z,96866.99
2023-02-13T19:46:44.458Z,96868.83
2023-02-13T19:49:13.210Z,96872.25
2023-02-13T19:51:42.536Z,96872.48
2023-02-13T19:54:13.092Z,96870.67
2023-02-13T19:56:41.916Z,96870.11
2023-02-13T19:59:13.692Z,96860.18
2023-02-13T20:01:45.899Z,96861.23
2023-02-13T20:04:17.716Z,96857.81
2023-02-13T20:06:49.111Z,96852.56
2023-02-13T20:09:17.761Z,96844.45
2023-02-13T20:11:46.510Z,96790.41
2023-02-13T20:14:15.611Z,96849.67
2023-02-13T20:16:48.255Z,96849.94
2023-02-13T20:19:17.399Z,96846.80
2023-02-13T20:21:49.572Z,96850.45
2023-02-13T20:24:24.082Z,96845.73
2023-02-13T20:26:58.933Z,96843.67
2023-02-13T20:29:29.496Z,96844.18
2023-02-13T20:31:59.598Z,96840.24
2023-02-13T20:34:37.620Z,96835.47
2023-02-13T20:37:00.131Z,96838.62
2023-02-13T20:39:30.126Z,96836.82
2023-02-13T20:41:58.799Z,96836.80
2023-02-13T20:44:29.159Z,96833.16
2023-02-13T20:46:59.586Z,96824.50
2023-02-13T20:49:28.283Z,96828.43
2023-02-13T20:51:56.840Z,96823.41
2023-02-13T20:54:25.508Z,96827.91
2023-02-13T20:56:54.427Z,96828.95
2023-02-13T20:59:33.590Z,96829.48
2023-02-13T21:02:04.112Z,96825.55
2023-02-13T21:04:34.553Z,96822.95
2023-02-13T21:07:09.010Z,96827.41
2023-02-13T21:09:39.112Z,96816.91
2023-02-13T21:12:08.185Z,96813.25
2023-02-13T21:14:41.660Z,96812.70
2023-02-13T21:17:10.609Z,96813.75
2023-02-13T21:19:39.541Z,96802.73
2023-02-13T21:22:16.828Z,96803.50
2023-02-13T21:24:46.725Z,96793.00
2023-02-13T21:27:15.297Z,96796.62
2023-02-13T21:29:43.957Z,96800.05
2023-02-13T21:32:12.662Z,96803.99
2023-02-13T21:34:41.436Z,96801.64
2023-02-13T21:37:10.055Z,96809.02
2023-02-13T21:39:39.666Z,96807.44
2023-02-13T21:42:08.679Z,96800.03
2023-02-13T21:44:37.300Z,96805.83
2023-02-13T21:47:07.300Z,96803.75
2023-02-13T21:49:36.757Z,96799.23
2023-02-13T21:52:05.678Z,96796.88
2023-02-13T21:54:34.619Z,96797.14
2023-02-13T21:57:05.798Z,96793.99
2023-02-13T21:59:39.633Z,96797.98
2023-02-13T22:02:08.745Z,96795.32
2023-02-13T22:04:37.598Z,96789.02
2023-02-13T22:10:35.426Z,96776.92
2023-02-13T22:13:04.614Z,96776.16
2023-02-13T22:15:33.472Z,96779.81
2023-02-13T22:18:02.244Z,96778.24
2023-02-13T22:20:31.067Z,96772.16
2023-02-13T22:23:01.317Z,96767.18
2023-02-13T22:25:29.991Z,96763.77
2023-02-13T22:28:00.795Z,96769.00
2023-02-13T22:30:32.907Z,96762.45
2023-02-13T22:33:07.396Z,96760.61
2023-02-13T22:35:41.289Z,96764.57
2023-02-13T22:38:13.591Z,96760.36
2023-02-13T22:40:42.411Z,96761.91
2023-02-13T22:43:13.638Z,96761.14
2023-02-13T22:45:42.313Z,96755.64
2023-02-13T22:48:10.929Z,96753.53
2023-02-13T22:50:39.525Z,96751.72
2023-02-13T22:53:08.251Z,96753.77
2023-02-13T22:55:36.832Z,96758.22
2023-02-13T22:58:05.498Z,96746.70
2023-02-13T23:00:35.639Z,96746.66
2023-02-13T23:03:04.418Z,96744.07
2023-02-13T23:05:33.067Z,96749.59
2023-02-13T23:08:01.670Z,96748.50
2023-02-13T23:10:30.364Z,96739.56
2023-02-13T23:12:58.982Z,96737.50
2023-02-13T23:15:29.702Z,96746.16
2023-02-13T23:18:13.027Z,96747.20
2023-02-13T23:20:43.824Z,96749.06
2023-02-13T23:23:13.347Z,96744.09
2023-02-13T23:25:41.960Z,96746.17
2023-02-13T23:28:10.634Z,96746.43
2023-02-13T23:30:40.591Z,96740.91
2023-02-13T23:33:09.286Z,96750.89
2023-02-13T23:35:37.827Z,96738.00
2023-02-13T23:38:06.478Z,96741.73
2023-02-13T23:40:35.149Z,96735.42
2023-02-13T23:43:03.827Z,96734.39
2023-02-13T23:45:35.518Z,96735.47
2023-02-13T23:48:04.189Z,96737.56
2023-02-13T23:50:33.299Z,96743.88
2023-02-13T23:53:02.024Z,96743.02
2023-02-13T23:55:30.552Z,96747.74
2023-02-13T23:57:59.332Z,96750.66
